createdAt,value
2019-02-15T00:02:11.854Z,73.50
2019-02-15T00:04:43.406Z,73.53
2019-02-15T00:07:14.882Z,73.60
2019-02-15T00:09:46.285Z,73.65
2019-02-15T00:12:17.745Z,73.70
2019-02-15T00:14:49.871Z,73.65
2019-02-15T00:17:39.006Z,73.73
2019-02-15T00:20:15.174Z,74.00
2019-02-15T00:22:46.646Z,74.06
2019-02-15T00:25:18.047Z,74.07
2019-02-15T00:27:49.499Z,73.98
2019-02-15T00:30:21.004Z,73.83
2019-02-15T00:32:52.649Z,73.65
2019-02-15T00:35:24.135Z,73.58
2019-02-15T00:37:55.662Z,73.71
2019-02-15T00:40:27.112Z,73.82
2019-02-15T00:42:58.557Z,74.06
2019-02-15T00:45:32.177Z,74.18
2019-02-15T00:48:07.184Z,74.37
2019-02-15T00:50:57.526Z,74.23
2019-02-15T00:53:49.380Z,74.22
2019-02-15T00:56:42.747Z,74.33
2019-02-15T00:59:29.674Z,74.39
2019-02-15T01:02:28.981Z,74.46
2019-02-15T01:05:19.330Z,74.58
2019-02-15T01:08:16.759Z,74.44
2019-02-15T01:11:12.947Z,74.50
2019-02-15T01:13:44.440Z,74.46
2019-02-15T01:16:15.864Z,74.54
2019-02-15T01:18:47.327Z,74.17
2019-02-15T01:21:18.797Z,73.80
2019-02-15T01:23:50.281Z,74.30
2019-02-15T01:26:37.952Z,74.07
2019-02-15T01:29:46.914Z,74.02
2019-02-15T01:32:37.191Z,74.12
2019-02-15T01:35:45.987Z,74.21
2019-02-15T01:38:34.877Z,74.15
2019-02-15T01:41:17.676Z,74.41
2019-02-15T01:44:07.975Z,74.64
2019-02-15T01:46:58.617Z,74.81
2019-02-15T01:49:30.112Z,74.73
2019-02-15T01:52:01.575Z,75.23
2019-02-15T01:54:33.002Z,75.42
2019-02-15T01:57:04.464Z,75.54
2019-02-15T01:59:36.954Z,75.52
2019-02-15T02:02:08.445Z,75.28
2019-02-15T02:04:40.044Z,75.04
2019-02-15T02:07:11.578Z,75.14
2019-02-15T02:09:44.055Z,75.21
2019-02-15T02:12:16.548Z,75.40
2019-02-15T02:14:48.096Z,75.53
2019-02-15T02:17:19.464Z,75.44
2019-02-15T02:19:50.937Z,75.35
2019-02-15T02:22:22.538Z,75.31
2019-02-15T02:24:54.132Z,75.31
2019-02-15T02:27:26.457Z,75.28
2019-02-15T02:29:57.862Z,75.16
2019-02-15T02:32:29.422Z,75.02
2019-02-15T02:35:01.745Z,75.14
2019-02-15T02:37:33.555Z,75.03
2019-02-15T02:40:05.404Z,74.90
2019-02-15T02:42:36.951Z,74.63
2019-02-15T02:45:08.708Z,75.00
2019-02-15T02:47:40.137Z,75.40
2019-02-15T02:50:11.606Z,75.34
2019-02-15T02:52:44.139Z,75.37
2019-02-15T02:55:15.562Z,75.34
2019-02-15T02:57:47.033Z,75.69
2019-02-15T03:00:18.456Z,75.71
2019-02-15T03:02:49.960Z,75.74
2019-02-15T03:05:21.870Z,75.90
2019-02-15T03:07:53.370Z,76.13
2019-02-15T03:10:25.844Z,76.10
2019-02-15T03:12:57.229Z,76.23
2019-02-15T03:15:28.678Z,76.48
2019-02-15T03:18:00.567Z,76.54
2019-02-15T03:20:31.962Z,76.66
2019-02-15T03:23:03.468Z,76.69
2019-02-15T03:25:34.874Z,76.52
2019-02-15T03:28:06.266Z,76.50
2019-02-15T03:30:37.864Z,76.58
2019-02-15T03:33:09.351Z,76.50
2019-02-15T03:35:53.673Z,76.60
2019-02-15T03:38:34.084Z,76.65
2019-02-15T03:41:08.169Z,76.62
2019-02-15T03:43:39.696Z,76.21
2019-02-15T03:46:11.157Z,75.68
2019-02-15T03:48:42.655Z,75.38
2019-02-15T03:51:14.066Z,76.12
2019-02-15T03:53:45.653Z,76.10
2019-02-15T03:56:17.061Z,75.93
2019-02-15T03:58:48.541Z,75.74
2019-02-15T04:01:19.920Z,75.31
2019-02-15T04:03:51.816Z,75.62
2019-02-15T04:06:23.734Z,76.23
2019-02-15T04:08:55.138Z,76.02
2019-02-15T04:11:26.526Z,75.86
2019-02-15T04:13:57.927Z,76.04
2019-02-15T04:16:30.413Z,76.02
2019-02-15T04:19:01.897Z,76.33
2019-02-15T04:21:33.269Z,76.50
2019-02-15T04:24:04.789Z,76.19
2019-02-15T04:26:36.172Z,75.96
2019-02-15T04:29:07.585Z,75.96
2019-02-15T04:31:38.984Z,75.99
2019-02-15T04:34:10.485Z,75.92
2019-02-15T04:36:41.993Z,75.86
2019-02-15T04:39:13.387Z,75.94
2019-02-15T04:41:44.945Z,75.85
2019-02-15T04:44:17.112Z,76.08
2019-02-15T04:46:50.060Z,76.35
2019-02-15T04:49:21.721Z,76.40
2019-02-15T04:51:53.201Z,76.59
2019-02-15T04:54:24.693Z,76.61
2019-02-15T04:56:56.193Z,76.44
2019-02-15T04:59:28.658Z,76.12
2019-02-15T05:02:00.108Z,76.50
2019-02-15T05:04:31.709Z,76.59
2019-02-15T05:07:03.117Z,77.26
2019-02-15T05:09:34.528Z,77.21
2019-02-15T05:12:06.011Z,77.57
2019-02-15T05:14:37.418Z,77.65
2019-02-15T05:17:08.884Z,77.18
2019-02-15T05:19:40.250Z,77.13
2019-02-15T05:22:11.638Z,77.06
2019-02-15T05:24:43.081Z,76.97
2019-02-15T05:27:14.497Z,77.15
2019-02-15T05:29:45.906Z,77.25
2019-02-15T05:32:17.395Z,77.21
2019-02-15T05:34:48.798Z,77.58
2019-02-15T05:37:20.374Z,77.48
2019-02-15T05:39:51.843Z,77.21
2019-02-15T05:42:23.236Z,77.18
2019-02-15T05:45:03.385Z,77.31
2019-02-15T05:47:27.981Z,77.27
2019-02-15T05:49:59.794Z,77.07
2019-02-15T05:52:31.257Z,76.67
2019-02-15T05:55:02.810Z,76.64
2019-02-15T05:57:34.251Z,76.49
2019-02-15T06:00:06.740Z,76.34
2019-02-15T06:02:38.245Z,76.26
2019-02-15T06:05:09.744Z,76.47
2019-02-15T06:07:41.223Z,76.46
2019-02-15T06:10:12.713Z,76.30
2019-02-15T06:12:44.295Z,76.17
2019-02-15T06:15:16.712Z,76.08
2019-02-15T06:17:48.374Z,75.89
2019-02-15T06:20:19.770Z,75.89
2019-02-15T06:22:51.217Z,75.91
2019-02-15T06:25:22.714Z,75.94
2019-02-15T06:27:54.270Z,75.90
2019-02-15T06:30:25.812Z,75.82
2019-02-15T06:32:57.623Z,75.79
2019-02-15T06:35:29.116Z,75.86
2019-02-15T06:38:00.506Z,75.85
2019-02-15T06:40:32.090Z,75.67
2019-02-15T06:43:03.532Z,75.62
2019-02-15T06:45:34.938Z,75.69
2019-02-15T06:48:06.431Z,75.85
2019-02-15T06:50:37.832Z,75.93
2019-02-15T06:53:10.058Z,76.02
2019-02-15T06:55:41.706Z,76.03
2019-02-15T06:58:13.088Z,75.99
2019-02-15T07:01:09.817Z,75.96
2019-02-15T07:04:06.274Z,75.82
2019-02-15T07:06:37.704Z,75.99
2019-02-15T07:09:09.108Z,75.78
2019-02-15T07:11:40.568Z,75.83
2019-02-15T07:14:11.937Z,75.84
2019-02-15T07:16:43.370Z,75.82
2019-02-15T07:19:14.806Z,75.73
2019-02-15T07:21:46.197Z,75.65
2019-02-15T07:24:17.980Z,75.64
2019-02-15T07:26:49.410Z,75.46
2019-02-15T07:29:20.841Z,75.45
2019-02-15T07:31:52.221Z,75.37
2019-02-15T07:34:23.631Z,75.45
2019-02-15T07:36:55.169Z,75.13
2019-02-15T07:39:26.619Z,74.94
2019-02-15T07:41:58.170Z,74.68
2019-02-15T07:44:29.739Z,74.31
2019-02-15T07:47:01.186Z,74.15
2019-02-15T07:49:32.627Z,73.86
2019-02-15T07:52:04.034Z,73.84
2019-02-15T07:54:35.598Z,73.28
2019-02-15T07:57:06.985Z,73.71
2019-02-15T07:59:38.347Z,73.43
2019-02-15T08:02:09.803Z,73.28
2019-02-15T08:04:41.210Z,72.97
2019-02-15T08:07:12.775Z,73.07
2019-02-15T08:09:44.149Z,72.77
2019-02-15T08:12:15.567Z,72.12
2019-02-15T08:14:47.050Z,71.91
2019-02-15T08:17:19.621Z,71.37
2019-02-15T08:19:51.099Z,71.08
2019-02-15T08:22:22.856Z,71.44
2019-02-15T08:24:54.268Z,70.99
2019-02-15T08:27:25.930Z,70.75
2019-02-15T08:29:59.174Z,70.77
2019-02-15T08:32:30.777Z,70.33
2019-02-15T08:35:02.263Z,69.56
2019-02-15T08:37:35.243Z,68.43
2019-02-15T08:40:07.562Z,68.06
2019-02-15T08:42:40.503Z,66.98
2019-02-15T08:45:13.363Z,66.58
2019-02-15T08:47:44.795Z,66.28
2019-02-15T08:50:16.324Z,64.82
2019-02-15T08:52:47.769Z,63.08
2019-02-15T08:55:19.226Z,61.70
2019-02-15T08:57:50.791Z,60.20
2019-02-15T09:00:22.252Z,59.26
2019-02-15T09:02:53.695Z,58.55
2019-02-15T09:05:25.168Z,56.81
2019-02-15T09:07:56.661Z,56.38
2019-02-15T09:10:28.062Z,55.63
2019-02-15T09:12:59.799Z,54.40
2019-02-15T09:15:31.160Z,53.52
2019-02-15T09:18:02.618Z,53.48
2019-02-15T09:20:34.150Z,53.11
2019-02-15T09:23:05.573Z,53.08
2019-02-15T09:25:37.017Z,51.65
2019-02-15T09:28:16.213Z,51.28
2019-02-15T09:30:51.576Z,50.16
2019-02-15T09:33:22.959Z,50.21
2019-02-15T09:35:54.497Z,48.68
2019-02-15T09:38:25.955Z,48.78
2019-02-15T09:40:57.323Z,47.79
2019-02-15T09:43:28.762Z,48.54
2019-02-15T09:46:00.362Z,47.93
2019-02-15T09:48:31.847Z,48.87
2019-02-15T09:51:03.231Z,48.10
2019-02-15T09:53:35.708Z,47.60
2019-02-15T09:56:07.146Z,46.95
2019-02-15T09:58:38.580Z,48.39
2019-02-15T10:01:10.232Z,50.13
2019-02-15T10:03:41.722Z,50.52
2019-02-15T10:06:13.215Z,50.26
2019-02-15T10:08:44.741Z,50.11
2019-02-15T10:11:16.392Z,51.02
2019-02-15T10:13:48.091Z,52.00
2019-02-15T10:16:28.220Z,53.06
2019-02-15T10:18:52.614Z,53.56
2019-02-15T10:21:24.063Z,54.41
2019-02-15T10:23:55.502Z,54.96
2019-02-15T10:26:26.912Z,53.56
2019-02-15T10:28:58.359Z,52.99
2019-02-15T10:31:30.138Z,55.25
2019-02-15T10:34:01.496Z,57.37
2019-02-15T10:36:33.125Z,57.25
2019-02-15T10:39:05.910Z,57.60
2019-02-15T10:41:37.603Z,57.49
2019-02-15T10:44:08.987Z,57.04
2019-02-15T10:46:42.662Z,55.27
2019-02-15T10:49:14.107Z,56.39
2019-02-15T10:51:46.417Z,56.08
2019-02-15T10:54:17.869Z,57.35
2019-02-15T10:56:49.244Z,59.40
2019-02-15T10:59:20.722Z,60.98
2019-02-15T11:01:52.278Z,61.61
2019-02-15T11:04:23.842Z,63.77
2019-02-15T11:06:55.294Z,65.32
2019-02-15T11:09:26.837Z,67.01
2019-02-15T11:11:58.227Z,68.23
2019-02-15T11:14:29.728Z,68.59
2019-02-15T11:17:03.061Z,68.33
2019-02-15T11:19:34.276Z,68.16
2019-02-15T11:22:05.800Z,68.21
2019-02-15T11:24:37.382Z,68.99
2019-02-15T11:27:08.942Z,69.87
2019-02-15T11:29:42.309Z,69.93
2019-02-15T11:32:13.875Z,70.22
2019-02-15T11:34:45.550Z,70.41
2019-02-15T11:37:16.927Z,70.58
2019-02-15T11:39:48.403Z,69.84
2019-02-15T11:42:19.855Z,69.78
2019-02-15T11:44:51.329Z,70.16
2019-02-15T11:47:22.785Z,70.20
2019-02-15T11:49:54.233Z,70.15
2019-02-15T11:52:25.655Z,71.42
2019-02-15T11:54:57.209Z,71.64
2019-02-15T11:57:28.704Z,71.44
2019-02-15T12:00:00.727Z,70.77
2019-02-15T12:02:32.445Z,70.96
2019-02-15T12:05:04.101Z,70.94
2019-02-15T12:07:35.817Z,70.98
2019-02-15T12:10:07.458Z,71.09
2019-02-15T12:12:39.158Z,70.60
2019-02-15T12:15:10.743Z,70.77
2019-02-15T12:17:42.208Z,71.03
2019-02-15T12:20:13.768Z,70.93
2019-02-15T12:22:45.381Z,70.53
2019-02-15T12:25:16.989Z,70.87
2019-02-15T12:27:48.608Z,70.13
2019-02-15T12:30:20.165Z,69.90
2019-02-15T12:32:51.655Z,70.06
2019-02-15T12:35:23.108Z,70.09
2019-02-15T12:37:54.636Z,70.30
2019-02-15T12:40:26.175Z,69.41
2019-02-15T12:42:57.745Z,69.60
2019-02-15T12:45:29.425Z,69.77
2019-02-15T12:48:00.886Z,69.00
2019-02-15T12:50:32.438Z,68.42
2019-02-15T12:53:03.871Z,68.76
2019-02-15T12:55:36.414Z,68.85
2019-02-15T12:58:08.092Z,68.58
2019-02-15T13:00:42.407Z,68.19
2019-02-15T13:03:13.843Z,68.17
2019-02-15T13:05:45.226Z,67.34
2019-02-15T13:08:16.724Z,66.82
2019-02-15T13:10:48.596Z,67.39
2019-02-15T13:13:20.048Z,67.03
2019-02-15T13:15:53.034Z,66.91
2019-02-15T13:18:24.391Z,67.58
2019-02-15T13:20:55.832Z,68.08
2019-02-15T13:23:27.894Z,67.90
2019-02-15T13:26:08.228Z,66.66
2019-02-15T13:28:32.596Z,67.88
2019-02-15T13:31:03.997Z,66.63
2019-02-15T13:33:35.425Z,66.79
2019-02-15T13:36:06.937Z,65.82
2019-02-15T13:38:38.439Z,65.44
2019-02-15T13:41:10.240Z,64.72
2019-02-15T13:43:44.010Z,63.53
2019-02-15T13:46:15.499Z,64.08
2019-02-15T13:48:46.875Z,63.26
2019-02-15T13:51:18.299Z,63.53
2019-02-15T13:53:49.696Z,63.76
2019-02-15T13:56:21.139Z,64.32
2019-02-15T13:58:52.599Z,64.06
2019-02-15T14:01:24.379Z,64.04
2019-02-15T14:03:55.800Z,64.56
2019-02-15T14:06:27.348Z,64.06
2019-02-15T14:08:58.742Z,64.32
2019-02-15T14:11:30.243Z,64.85
2019-02-15T14:14:01.733Z,65.03
2019-02-15T14:16:33.250Z,64.72
2019-02-15T14:19:04.808Z,64.50
2019-02-15T14:21:44.156Z,64.72
2019-02-15T14:24:09.480Z,64.82
2019-02-15T14:26:40.979Z,64.72
2019-02-15T14:29:12.410Z,64.15
2019-02-15T14:31:43.927Z,64.09
2019-02-15T14:34:15.443Z,63.70
2019-02-15T14:36:46.903Z,63.27
2019-02-15T14:39:18.470Z,63.68
2019-02-15T14:41:49.994Z,63.92
2019-02-15T14:44:22.582Z,63.93
2019-02-15T14:46:54.043Z,64.13
2019-02-15T14:49:25.490Z,64.22
2019-02-15T14:51:57.008Z,64.87
2019-02-15T14:54:28.451Z,65.15
2019-02-15T14:56:59.892Z,65.45
2019-02-15T14:59:43.151Z,65.89
2019-02-15T15:02:17.583Z,65.94
2019-02-15T15:04:49.086Z,66.94
2019-02-15T15:07:20.766Z,67.25
2019-02-15T15:09:53.110Z,67.71
2019-02-15T15:12:24.731Z,68.09
2019-02-15T15:14:59.467Z,68.05
2019-02-15T15:17:31.314Z,68.32
2019-02-15T15:20:02.876Z,68.54
2019-02-15T15:22:36.949Z,68.82
2019-02-15T15:25:14.828Z,68.75
2019-02-15T15:27:46.679Z,68.99
2019-02-15T15:30:18.408Z,69.36
2019-02-15T15:32:50.067Z,69.63
2019-02-15T15:35:22.758Z,69.79
2019-02-15T15:37:54.230Z,69.93
2019-02-15T15:40:26.075Z,69.71
2019-02-15T15:42:57.687Z,69.71
2019-02-15T15:45:29.122Z,69.84
2019-02-15T15:48:00.777Z,70.05
2019-02-15T15:50:32.534Z,69.94
2019-02-15T15:53:04.319Z,70.07
2019-02-15T15:55:36.036Z,70.15
2019-02-15T15:58:09.152Z,70.56
2019-02-15T16:00:44.621Z,70.72
2019-02-15T16:03:19.454Z,70.96
2019-02-15T16:06:23.866Z,70.49
2019-02-15T16:08:49.125Z,70.45
2019-02-15T16:11:28.909Z,70.30
2019-02-15T16:14:16.173Z,70.59
2019-02-15T16:16:59.594Z,70.73
2019-02-15T16:19:40.384Z,71.13
2019-02-15T16:22:12.730Z,71.34
2019-02-15T16:24:46.071Z,71.59
2019-02-15T16:27:18.809Z,71.55
2019-02-15T16:29:50.338Z,71.43
2019-02-15T16:32:31.133Z,71.48
2019-02-15T16:35:03.214Z,70.93
2019-02-15T16:38:37.649Z,70.68
2019-02-15T16:40:40.528Z,70.95
2019-02-15T16:43:12.390Z,70.96
2019-02-15T16:45:45.942Z,70.99
2019-02-15T16:48:19.287Z,71.66
2019-02-15T16:50:59.294Z,71.76
2019-02-15T16:53:32.366Z,71.83
2019-02-15T16:56:09.745Z,71.07
2019-02-15T16:58:43.131Z,71.43
2019-02-15T17:01:15.173Z,71.59
2019-02-15T17:03:56.443Z,72.31
2019-02-15T17:06:29.945Z,72.03
2019-02-15T17:09:09.571Z,71.85
2019-02-15T17:11:41.922Z,71.67
2019-02-15T17:14:24.942Z,71.84
2019-02-15T17:20:14.601Z,72.08
2019-02-15T17:22:48.172Z,72.07
2019-02-15T17:28:42.596Z,71.84
2019-02-15T17:31:28.773Z,72.39
2019-02-15T17:34:14.513Z,71.93
2019-02-15T17:36:55.227Z,72.10
2019-02-15T17:39:23.500Z,72.60
2019-02-15T17:41:55.924Z,71.99
2019-02-15T17:44:32.449Z,72.21
2019-02-15T17:47:04.533Z,72.56
2019-02-15T17:49:47.078Z,72.83
2019-02-15T17:52:18.944Z,72.90
2019-02-15T17:54:53.974Z,73.27
2019-02-15T17:57:26.124Z,73.56
2019-02-15T17:59:59.033Z,73.74
2019-02-15T18:02:41.843Z,73.55
2019-02-15T18:05:21.849Z,73.81
2019-02-15T18:07:54.054Z,73.73
2019-02-15T18:10:25.716Z,73.81
2019-02-15T18:12:57.374Z,73.72
2019-02-15T18:15:29.311Z,73.40
2019-02-15T18:18:02.930Z,73.14
2019-02-15T18:20:34.753Z,73.34
2019-02-15T18:23:06.558Z,73.20
2019-02-15T18:25:38.211Z,73.30
2019-02-15T18:28:13.152Z,73.05
2019-02-15T18:30:47.219Z,73.19
2019-02-15T18:33:18.837Z,72.94
2019-02-15T18:35:51.678Z,72.70
2019-02-15T18:38:23.586Z,72.64
2019-02-15T18:40:56.598Z,72.54
2019-02-15T18:43:28.320Z,73.23
2019-02-15T18:46:08.189Z,72.57
2019-02-15T18:48:39.812Z,73.15
2019-02-15T18:51:11.541Z,73.54
2019-02-15T18:53:50.685Z,73.78
2019-02-15T18:56:27.082Z,74.20
2019-02-15T18:58:58.564Z,74.85
2019-02-15T19:01:30.208Z,74.94
2019-02-15T19:04:02.774Z,75.28
2019-02-15T19:06:35.751Z,75.14
2019-02-15T19:09:08.040Z,75.23
2019-02-15T19:11:39.896Z,75.04
2019-02-15T19:14:11.593Z,75.34
2019-02-15T19:16:43.221Z,75.27
2019-02-15T19:19:14.996Z,75.03
2019-02-15T19:21:47.669Z,74.86
2019-02-15T19:24:19.881Z,74.09
2019-02-15T19:26:51.717Z,73.83
2019-02-15T19:29:23.276Z,74.77
2019-02-15T19:31:56.170Z,75.02
2019-02-15T19:34:34.719Z,75.30
2019-02-15T19:37:06.583Z,75.28
2019-02-15T19:39:39.475Z,75.10
2019-02-15T19:42:17.856Z,75.24
2019-02-15T19:44:49.712Z,74.65
2019-02-15T19:47:21.337Z,74.54
2019-02-15T19:49:53.023Z,74.72
2019-02-15T19:52:24.884Z,74.71
2019-02-15T19:54:59.006Z,75.29
2019-02-15T19:57:30.852Z,74.83
2019-02-15T20:00:10.837Z,75.40
2019-02-15T20:02:44.819Z,75.99
2019-02-15T20:05:18.911Z,76.35
2019-02-15T20:07:50.811Z,75.76
2019-02-15T20:10:22.577Z,75.94
2019-02-15T20:12:54.241Z,75.97
2019-02-15T20:15:26.717Z,76.13
2019-02-15T20:17:58.468Z,75.97
2019-02-15T20:20:30.227Z,76.32
2019-02-15T20:23:04.681Z,76.41
2019-02-15T20:25:37.484Z,75.83
2019-02-15T20:28:16.588Z,75.74
2019-02-15T20:30:48.461Z,76.28
2019-02-15T20:33:21.431Z,76.99
2019-02-15T20:35:52.955Z,76.62
2019-02-15T20:38:24.783Z,77.03
2019-02-15T20:40:56.277Z,77.90
2019-02-15T20:43:27.916Z,77.47
2019-02-15T20:45:59.410Z,76.63
2019-02-15T20:48:30.944Z,77.78
2019-02-15T20:51:02.367Z,77.36
2019-02-15T20:53:33.736Z,77.71
2019-02-15T20:56:05.269Z,76.66
2019-02-15T20:58:36.852Z,77.29
2019-02-15T21:01:08.481Z,77.25
2019-02-15T21:03:39.958Z,77.12
2019-02-15T21:06:11.386Z,76.39
2019-02-15T21:08:42.804Z,75.94
2019-02-15T21:11:14.382Z,76.14
2019-02-15T21:13:45.952Z,76.00
2019-02-15T21:16:17.535Z,76.32
2019-02-15T21:18:48.948Z,76.45
2019-02-15T21:21:20.345Z,76.18
2019-02-15T21:23:51.934Z,76.39
2019-02-15T21:26:23.558Z,77.02
2019-02-15T21:28:56.113Z,76.76
2019-02-15T21:31:27.713Z,76.79
2019-02-15T21:33:59.181Z,75.77
2019-02-15T21:36:31.070Z,77.08
2019-02-15T21:39:03.151Z,78.11
2019-02-15T21:41:36.749Z,77.81
2019-02-15T21:44:08.949Z,77.68
2019-02-15T21:46:40.721Z,77.13
2019-02-15T21:49:12.490Z,77.38
2019-02-15T21:51:44.189Z,77.58
2019-02-15T21:54:16.012Z,78.10
2019-02-15T21:56:47.784Z,78.82
2019-02-15T21:59:19.463Z,79.21
2019-02-15T22:01:54.243Z,79.00
2019-02-15T22:04:25.841Z,78.72
2019-02-15T22:06:57.486Z,78.69
2019-02-15T22:09:28.985Z,78.92
2019-02-15T22:12:00.514Z,78.83
2019-02-15T22:14:32.039Z,78.45
2019-02-15T22:17:03.571Z,78.87
2019-02-15T22:19:35.119Z,79.15
2019-02-15T22:22:06.844Z,79.08
2019-02-15T22:24:38.549Z,78.29
2019-02-15T22:27:10.282Z,77.86
2019-02-15T22:29:41.733Z,77.76
2019-02-15T22:32:13.289Z,78.10
2019-02-15T22:34:44.742Z,77.50
2019-02-15T22:37:16.215Z,77.34
2019-02-15T22:39:47.618Z,77.28
2019-02-15T22:42:19.145Z,77.71
2019-02-15T22:44:50.513Z,78.68
2019-02-15T22:47:21.969Z,79.49
2019-02-15T22:49:53.424Z,79.41
2019-02-15T22:52:26.409Z,78.95
2019-02-15T22:54:57.803Z,78.66
2019-02-15T22:57:29.232Z,78.23
2019-02-15T23:00:01.386Z,79.35
2019-02-15T23:02:35.912Z,78.95
2019-02-15T23:05:07.512Z,78.58
2019-02-15T23:07:39.025Z,78.49
2019-02-15T23:10:10.576Z,79.12
2019-02-15T23:12:42.093Z,78.86
2019-02-15T23:15:13.689Z,78.90
2019-02-15T23:17:45.159Z,78.03
2019-02-15T23:20:16.755Z,77.72
2019-02-15T23:22:48.277Z,76.82
2019-02-15T23:25:19.731Z,77.31
2019-02-15T23:27:51.286Z,78.08
2019-02-15T23:30:23.782Z,77.62
2019-02-15T23:32:55.201Z,77.73
2019-02-15T23:35:26.977Z,77.78
2019-02-15T23:37:58.814Z,77.88
2019-02-15T23:40:30.336Z,78.27
2019-02-15T23:43:01.935Z,78.46
2019-02-15T23:45:33.379Z,78.42
2019-02-15T23:48:04.907Z,78.95
2019-02-15T23:50:36.399Z,78.63
2019-02-15T23:53:08.020Z,78.20
2019-02-15T23:55:39.404Z,78.09
2019-02-15T23:58:10.975Z,78.66
